createdAt,value
2019-01-21T00:01:59.509Z,35.50
2019-01-21T00:04:29.342Z,37.00
2019-01-21T00:06:59.075Z,42.80
2019-01-21T00:09:28.736Z,40.70
2019-01-21T00:11:58.427Z,45.87
2019-01-21T00:14:28.084Z,37.50
2019-01-21T00:16:57.841Z,36.13
2019-01-21T00:19:27.578Z,32.87
2019-01-21T00:21:57.280Z,52.37
2019-01-21T00:24:27.036Z,42.30
2019-01-21T00:26:56.708Z,46.70
2019-01-21T00:29:26.433Z,33.97
2019-01-21T00:31:56.111Z,42.93
2019-01-21T00:34:25.804Z,40.33
2019-01-21T00:36:55.577Z,42.93
2019-01-21T00:39:25.255Z,33.23
2019-01-21T00:41:54.947Z,47.43
2019-01-21T00:44:24.636Z,46.80
2019-01-21T00:46:54.361Z,43.27
2019-01-21T00:49:24.013Z,42.17
2019-01-21T00:51:53.675Z,41.33
2019-01-21T00:54:23.359Z,47.67
2019-01-21T00:56:53.124Z,44.83
2019-01-21T00:59:22.857Z,39.83
2019-01-21T01:01:52.637Z,39.63
2019-01-21T01:04:22.373Z,35.37
2019-01-21T01:06:52.067Z,40.27
2019-01-21T01:09:21.739Z,49.37
2019-01-21T01:11:51.429Z,34.77
2019-01-21T01:14:21.104Z,44.30
2019-01-21T01:16:50.825Z,42.27
2019-01-21T01:19:20.471Z,38.87
2019-01-21T01:21:50.162Z,47.37
2019-01-21T01:24:19.813Z,36.77
2019-01-21T01:26:49.501Z,41.63
2019-01-21T01:29:19.155Z,44.40
2019-01-21T01:31:48.840Z,43.50
2019-01-21T01:34:18.507Z,44.77
2019-01-21T01:36:48.299Z,38.83
2019-01-21T01:39:17.997Z,33.07
2019-01-21T01:41:47.748Z,41.63
2019-01-21T01:44:17.495Z,35.60
2019-01-21T01:46:47.486Z,38.33
2019-01-21T01:49:17.246Z,46.30
2019-01-21T01:51:46.919Z,40.80
2019-01-21T01:54:16.665Z,42.20
2019-01-21T01:56:46.512Z,43.47
2019-01-21T01:59:16.477Z,39.60
2019-01-21T02:01:46.383Z,37.87
2019-01-21T02:04:16.114Z,47.43
2019-01-21T02:06:45.947Z,47.40
2019-01-21T02:09:15.592Z,38.83
2019-01-21T02:11:45.422Z,31.13
2019-01-21T02:14:15.123Z,49.10
2019-01-21T02:16:44.834Z,40.20
2019-01-21T02:19:14.572Z,37.70
2019-01-21T02:21:44.799Z,45.40
2019-01-21T02:24:16.829Z,43.70
2019-01-21T02:27:00.601Z,44.23
2019-01-21T02:30:00.213Z,40.30
2019-01-21T02:32:56.499Z,41.93
2019-01-21T02:35:34.986Z,43.43
2019-01-21T02:38:37.528Z,37.67
2019-01-21T02:41:47.008Z,41.33
2019-01-21T02:44:27.038Z,48.10
2019-01-21T02:47:25.314Z,42.93
2019-01-21T02:50:51.227Z,43.40
2019-01-21T02:53:50.718Z,45.63
2019-01-21T02:57:10.650Z,43.10
2019-01-21T03:00:08.962Z,44.37
2019-01-21T03:03:26.328Z,40.33
2019-01-21T03:06:24.629Z,35.13
2019-01-21T03:09:36.369Z,38.30
2019-01-21T03:12:46.228Z,36.70
2019-01-21T03:15:37.940Z,37.43
2019-01-21T03:18:41.202Z,49.00
2019-01-21T03:21:48.556Z,32.93
2019-01-21T03:24:58.230Z,37.57
2019-01-21T03:27:43.404Z,40.73
2019-01-21T03:31:13.664Z,38.70
2019-01-21T03:34:11.781Z,37.07
2019-01-21T03:37:41.104Z,33.50
2019-01-21T03:40:58.040Z,44.77
2019-01-21T03:43:54.706Z,37.77
2019-01-21T03:46:53.298Z,45.10
2019-01-21T03:50:10.165Z,39.00
2019-01-21T03:53:20.156Z,44.80
2019-01-21T03:55:52.991Z,39.27
2019-01-21T03:59:01.232Z,49.07
2019-01-21T04:02:12.189Z,39.27
2019-01-21T04:05:00.918Z,41.03
2019-01-21T04:07:40.238Z,31.83
2019-01-21T04:10:59.734Z,37.03
2019-01-21T04:13:41.268Z,46.77
2019-01-21T04:16:43.170Z,40.97
2019-01-21T04:19:22.510Z,38.73
2019-01-21T04:22:29.928Z,39.87
2019-01-21T04:25:46.832Z,38.93
2019-01-21T04:28:45.876Z,35.33
2019-01-21T04:31:56.988Z,36.13
2019-01-21T04:35:05.644Z,48.83
2019-01-21T04:38:11.810Z,32.43
2019-01-21T04:40:58.792Z,34.63
2019-01-21T04:44:15.716Z,40.70
2019-01-21T04:47:18.486Z,39.67
2019-01-21T04:50:18.736Z,36.40
2019-01-21T04:53:15.378Z,37.70
2019-01-21T04:56:26.186Z,42.50
2019-01-21T05:00:04.781Z,40.03
2019-01-21T05:03:10.818Z,41.83
2019-01-21T05:06:07.856Z,33.60
2019-01-21T05:09:04.459Z,36.37
2019-01-21T05:12:00.681Z,35.17
2019-01-21T05:15:09.908Z,38.10
2019-01-21T05:18:02.802Z,38.77
2019-01-21T05:21:10.397Z,36.47
2019-01-21T05:24:20.690Z,28.87
2019-01-21T05:27:14.146Z,39.90
2019-01-21T05:30:02.106Z,45.90
2019-01-21T05:33:19.224Z,36.70
2019-01-21T05:36:15.836Z,41.03
2019-01-21T05:39:25.702Z,29.97
2019-01-21T05:42:31.746Z,32.93
2019-01-21T05:45:55.132Z,28.70
2019-01-21T05:49:02.230Z,35.97
2019-01-21T05:52:37.801Z,31.20
2019-01-21T05:55:45.701Z,31.53
2019-01-21T05:58:32.796Z,44.73
2019-01-21T06:01:46.155Z,36.80
2019-01-21T06:04:42.976Z,24.23
2019-01-21T06:08:09.055Z,36.50
2019-01-21T06:10:47.272Z,40.37
2019-01-21T06:13:55.542Z,33.43
2019-01-21T06:16:49.778Z,40.90
2019-01-21T06:19:55.633Z,27.23
2019-01-21T06:22:57.254Z,28.47
2019-01-21T06:26:23.703Z,30.70
2019-01-21T06:29:24.387Z,32.60
2019-01-21T06:32:56.915Z,24.00
2019-01-21T06:36:03.241Z,40.23
2019-01-21T06:39:26.357Z,38.70
2019-01-21T06:42:21.842Z,33.87
2019-01-21T06:45:31.466Z,37.83
2019-01-21T06:48:19.695Z,30.93
2019-01-21T06:51:32.916Z,34.77
2019-01-21T06:54:35.036Z,35.97
2019-01-21T06:57:58.475Z,36.17
2019-01-21T07:01:11.021Z,33.23
2019-01-21T07:04:31.299Z,40.07
2019-01-21T07:08:03.848Z,30.97
2019-01-21T07:11:05.002Z,29.03
2019-01-21T07:13:58.475Z,22.17
2019-01-21T07:16:56.735Z,36.37
2019-01-21T07:20:22.809Z,35.40
2019-01-21T07:23:38.876Z,46.67
2019-01-21T07:26:48.863Z,37.93
2019-01-21T07:29:58.416Z,35.03
2019-01-21T07:32:42.992Z,34.87
2019-01-21T07:35:58.226Z,27.20
2019-01-21T07:38:51.745Z,38.33
2019-01-21T07:42:04.761Z,26.20
2019-01-21T07:45:02.886Z,36.13
2019-01-21T07:48:05.234Z,32.23
2019-01-21T07:51:13.371Z,34.10
2019-01-21T07:54:12.373Z,38.60
2019-01-21T07:57:10.693Z,30.97
2019-01-21T08:00:02.816Z,42.20
2019-01-21T08:03:02.206Z,36.23
2019-01-21T08:06:06.787Z,31.20
2019-01-21T08:08:56.463Z,39.83
2019-01-21T08:12:07.316Z,43.77
2019-01-21T08:15:12.133Z,44.70
2019-01-21T08:18:03.636Z,44.97
2019-01-21T08:21:01.186Z,27.97
2019-01-21T08:24:33.497Z,37.47
2019-01-21T08:27:41.063Z,42.10
2019-01-21T08:30:47.576Z,39.60
2019-01-21T08:33:33.504Z,30.13
2019-01-21T08:36:30.755Z,43.47
2019-01-21T08:39:30.823Z,45.83
2019-01-21T08:42:36.071Z,31.53
2019-01-21T08:45:41.076Z,36.97
2019-01-21T08:48:41.411Z,37.90
2019-01-21T08:51:58.138Z,29.23
2019-01-21T08:55:14.187Z,33.47
2019-01-21T08:58:21.689Z,37.67
2019-01-21T09:01:23.665Z,36.20
2019-01-21T09:04:16.293Z,39.63
2019-01-21T09:07:25.847Z,48.00
2019-01-21T09:10:28.661Z,39.60
2019-01-21T09:13:30.945Z,35.03
2019-01-21T09:16:47.843Z,35.73
2019-01-21T09:19:51.970Z,42.13
2019-01-21T09:23:03.062Z,42.13
2019-01-21T09:26:29.386Z,43.70
2019-01-21T09:29:26.914Z,33.73
2019-01-21T09:32:07.172Z,43.57
2019-01-21T09:35:19.723Z,41.57
2019-01-21T09:38:26.076Z,35.67
2019-01-21T09:41:24.774Z,29.27
2019-01-21T09:44:19.703Z,38.67
2019-01-21T09:46:48.742Z,32.37
2019-01-21T09:49:16.977Z,40.97
2019-01-21T09:52:23.789Z,37.10
2019-01-21T09:54:53.832Z,33.23
2019-01-21T09:57:27.659Z,34.00
2019-01-21T10:00:00.497Z,39.53
2019-01-21T10:02:45.090Z,30.93
2019-01-21T10:05:16.328Z,40.70
2019-01-21T10:08:24.557Z,43.77
2019-01-21T10:11:31.453Z,39.20
2019-01-21T10:14:40.807Z,35.27
2019-01-21T10:17:54.771Z,40.27
2019-01-21T10:21:04.638Z,35.73
2019-01-21T10:24:14.317Z,25.43
2019-01-21T10:27:52.500Z,28.67
2019-01-21T10:31:01.849Z,32.27
2019-01-21T10:34:15.418Z,35.27
2019-01-21T10:37:26.767Z,35.40
2019-01-21T10:40:09.542Z,36.30
2019-01-21T10:43:20.691Z,25.47
2019-01-21T10:46:31.909Z,29.53
2019-01-21T10:49:47.952Z,29.53
2019-01-21T10:52:54.840Z,33.63
2019-01-21T10:55:49.199Z,25.07
2019-01-21T10:58:50.296Z,36.80
2019-01-21T11:02:16.507Z,29.37
2019-01-21T11:05:14.872Z,24.93
2019-01-21T11:08:22.068Z,28.10
2019-01-21T11:11:38.920Z,30.57
2019-01-21T11:14:45.976Z,30.13
2019-01-21T11:18:01.372Z,26.67
2019-01-21T11:21:00.181Z,38.77
2019-01-21T11:24:23.241Z,26.83
2019-01-21T11:27:13.599Z,31.47
2019-01-21T11:30:19.403Z,29.83
2019-01-21T11:33:36.809Z,24.43
2019-01-21T11:36:53.855Z,12.50
2019-01-21T11:40:07.903Z,23.20
2019-01-21T11:43:13.515Z,25.47
2019-01-21T11:46:06.007Z,26.93
2019-01-21T11:49:14.080Z,25.50
2019-01-21T11:52:23.508Z,31.07
2019-01-21T11:55:35.619Z,21.73
2019-01-21T11:58:51.913Z,27.83
2019-01-21T12:01:44.663Z,31.00
2019-01-21T12:04:40.479Z,35.77
2019-01-21T12:07:37.332Z,24.73
2019-01-21T12:10:29.959Z,28.33
2019-01-21T12:13:34.464Z,28.83
2019-01-21T12:16:35.533Z,25.13
2019-01-21T12:19:36.812Z,29.17
2019-01-21T12:22:20.282Z,27.40
2019-01-21T12:25:12.929Z,23.03
2019-01-21T12:28:33.013Z,29.50
2019-01-21T12:31:17.745Z,28.27
2019-01-21T12:34:14.134Z,26.63
2019-01-21T12:37:22.017Z,23.90
2019-01-21T12:40:46.002Z,23.87
2019-01-21T12:43:58.862Z,23.63
2019-01-21T12:46:48.789Z,25.70
2019-01-21T12:49:38.841Z,28.97
2019-01-21T12:52:20.231Z,23.93
2019-01-21T12:55:33.918Z,28.13
2019-01-21T12:58:28.788Z,26.97
2019-01-21T13:01:19.018Z,27.47
2019-01-21T13:04:35.114Z,28.60
2019-01-21T13:07:40.702Z,31.80
2019-01-21T13:10:56.419Z,23.20
2019-01-21T13:14:18.810Z,23.77
2019-01-21T13:17:25.629Z,24.90
2019-01-21T13:20:41.446Z,24.37
2019-01-21T13:23:24.232Z,25.60
2019-01-21T13:26:27.930Z,26.10
2019-01-21T13:29:40.599Z,28.97
2019-01-21T13:32:29.176Z,28.23
2019-01-21T13:35:48.456Z,32.77
2019-01-21T13:39:08.407Z,23.53
2019-01-21T13:42:17.515Z,27.70
2019-01-21T13:45:10.363Z,27.23
2019-01-21T13:48:39.188Z,21.90
2019-01-21T13:51:31.981Z,27.60
2019-01-21T13:54:15.327Z,26.23
2019-01-21T13:57:27.013Z,28.40
2019-01-21T14:00:12.609Z,24.10
2019-01-21T14:03:25.665Z,28.60
2019-01-21T14:06:23.036Z,28.20
2019-01-21T14:09:22.069Z,23.13
2019-01-21T14:12:15.491Z,26.23
2019-01-21T14:15:21.723Z,22.03
2019-01-21T14:18:39.296Z,25.13
2019-01-21T14:21:53.870Z,26.83
2019-01-21T14:25:17.347Z,25.93
2019-01-21T14:28:26.181Z,27.60
2019-01-21T14:31:06.118Z,30.00
2019-01-21T14:34:17.000Z,27.37
2019-01-21T14:37:32.205Z,30.57
2019-01-21T14:40:23.929Z,35.47
2019-01-21T14:43:16.271Z,24.17
2019-01-21T14:46:45.145Z,28.70
2019-01-21T14:49:35.834Z,26.67
2019-01-21T14:52:38.044Z,23.97
2019-01-21T14:55:28.960Z,29.40
2019-01-21T14:58:06.836Z,27.80
2019-01-21T15:01:01.599Z,26.90
2019-01-21T15:04:00.228Z,28.10
2019-01-21T15:07:27.101Z,25.63
2019-01-21T15:10:14.532Z,21.17
2019-01-21T15:13:11.848Z,28.63
2019-01-21T15:16:12.949Z,26.80
2019-01-21T15:19:00.221Z,26.20
2019-01-21T15:22:12.957Z,28.63
2019-01-21T15:25:03.271Z,27.33
2019-01-21T15:28:17.434Z,25.47
2019-01-21T15:31:22.495Z,26.07
2019-01-21T15:34:18.641Z,25.30
2019-01-21T15:37:13.184Z,27.70
2019-01-21T15:40:09.366Z,30.30
2019-01-21T15:42:57.194Z,34.57
2019-01-21T15:46:02.171Z,34.67
2019-01-21T15:49:01.061Z,34.83
2019-01-21T15:52:26.428Z,35.53
2019-01-21T15:55:18.574Z,32.60
2019-01-21T15:58:19.086Z,27.33
2019-01-21T16:01:24.405Z,30.97
2019-01-21T16:04:15.490Z,21.57
2019-01-21T16:06:55.964Z,29.70
2019-01-21T16:09:52.714Z,32.77
2019-01-21T16:13:00.852Z,27.40
2019-01-21T16:16:03.372Z,25.23
2019-01-21T16:18:43.878Z,28.93
2019-01-21T16:21:37.331Z,26.90
2019-01-21T16:24:38.589Z,30.27
2019-01-21T16:27:27.371Z,28.13
2019-01-21T16:30:06.339Z,25.63
2019-01-21T16:32:44.412Z,33.20
2019-01-21T16:35:33.510Z,26.80
2019-01-21T16:38:12.568Z,29.70
2019-01-21T16:41:27.197Z,45.77
2019-01-21T16:43:57.065Z,39.37
2019-01-21T16:46:27.003Z,47.80
2019-01-21T16:48:56.754Z,47.93
2019-01-21T16:51:26.542Z,40.77
2019-01-21T16:53:56.405Z,37.73
2019-01-21T16:56:26.277Z,42.83
2019-01-21T16:58:56.024Z,29.93
2019-01-21T17:01:26.694Z,27.67
2019-01-21T17:03:56.460Z,30.93
2019-01-21T17:06:28.588Z,36.27
2019-01-21T17:08:58.370Z,32.70
2019-01-21T17:11:28.436Z,27.10
2019-01-21T17:13:58.130Z,25.50
2019-01-21T17:16:27.842Z,25.00
2019-01-21T17:18:57.685Z,26.37
2019-01-21T17:21:27.480Z,31.00
2019-01-21T17:23:57.221Z,26.40
2019-01-21T17:26:28.824Z,30.17
2019-01-21T17:28:58.498Z,26.90
2019-01-21T17:31:28.282Z,28.10
2019-01-21T17:33:57.984Z,29.37
2019-01-21T17:36:27.764Z,27.43
2019-01-21T17:39:05.099Z,24.87
2019-01-21T17:41:34.922Z,27.83
2019-01-21T17:44:06.897Z,31.03
2019-01-21T17:46:36.786Z,27.47
2019-01-21T17:49:07.468Z,33.47
2019-01-21T17:51:38.844Z,28.77
2019-01-21T17:54:08.665Z,20.37
2019-01-21T17:56:38.440Z,29.70
2019-01-21T17:59:08.374Z,26.20
2019-01-21T18:01:39.426Z,28.50
2019-01-21T18:04:11.051Z,27.77
2019-01-21T18:06:40.805Z,23.30
2019-01-21T18:09:11.647Z,28.10
2019-01-21T18:11:42.677Z,25.10
2019-01-21T18:14:12.550Z,22.27
2019-01-21T18:16:42.423Z,30.23
2019-01-21T18:19:13.617Z,31.20
2019-01-21T18:21:43.523Z,31.40
2019-01-21T18:24:14.391Z,28.17
2019-01-21T18:26:44.211Z,31.70
2019-01-21T18:29:16.086Z,24.93
2019-01-21T18:31:46.173Z,26.60
